Time;durP1;ratioP1;P1;durP2;ratioP2;P2;SDS_P1;SDS_P2;PMS_P1;PMS_P2;Temp;Humidity;BMP_temperature;BMP_pressure;BME280_temperature;BME280_humidity;BME280_pressure;Samples;Min_cycle;Max_cycle;Signal;HPM_P1;HPM_P2
2023/07/10 00:00:04;;;;;;;9.63;6.07;;;;;;;;;;5071443;28;20645;-58
2023/07/10 00:02:30;;;;;;;6.27;5.67;;;;;;;;;;5070188;28;20221;-58
2023/07/10 00:04:56;;;;;;;6.03;5.53;;;;;;;;;;5070361;28;20204;-58
2023/07/10 00:07:22;;;;;;;7.23;5.43;;;;;;;;;;5071302;28;20646;-58
2023/07/10 00:09:49;;;;;;;5.80;5.30;;;;;;;;;;5071206;28;20175;-58
2023/07/10 00:12:18;;;;;;;7.10;6.17;;;;;;;;;;5071084;28;20480;-58
2023/07/10 00:14:44;;;;;;;7.13;6.00;;;;;;;;;;5071096;28;20202;-57
2023/07/10 00:17:11;;;;;;;5.53;5.07;;;;;;;;;;5070105;28;20519;-58
2023/07/10 00:19:37;;;;;;;6.70;5.47;;;;;;;;;;5070733;28;20697;-57
2023/07/10 00:22:03;;;;;;;5.77;5.23;;;;;;;;;;5070681;28;20196;-57
2023/07/10 00:24:29;;;;;;;5.03;4.63;;;;;;;;;;5070765;28;20156;-56
2023/07/10 00:26:55;;;;;;;6.73;5.37;;;;;;;;;;5070409;28;20168;-58
2023/07/10 00:29:24;;;;;;;5.50;5.07;;;;;;;;;;5070283;28;20164;-58
2023/07/10 00:31:50;;;;;;;5.67;5.17;;;;;;;;;;5069951;28;20326;-58
2023/07/10 00:34:17;;;;;;;6.17;5.53;;;;;;;;;;5051941;28;20413;-58
2023/07/10 00:36:45;;;;;;;5.57;5.03;;;;;;;;;;5070416;28;20246;-58
2023/07/10 00:39:20;;;;;;;5.33;4.83;;;;;;;;;;5070564;28;20184;-58
2023/07/10 00:41:47;;;;;;;5.43;4.93;;;;;;;;;;5070732;28;20602;-58
2023/07/10 00:44:13;;;;;;;7.73;5.13;;;;;;;;;;5070070;28;20164;-58
2023/07/10 00:46:42;;;;;;;5.87;5.27;;;;;;;;;;5069911;28;20178;-58
2023/07/10 00:49:11;;;;;;;5.17;4.67;;;;;;;;;;5069438;28;20173;-58
2023/07/10 00:51:40;;;;;;;7.73;5.43;;;;;;;;;;5070468;28;20170;-58
2023/07/10 00:54:13;;;;;;;6.43;5.13;;;;;;;;;;5070289;28;20162;-58
2023/07/10 00:56:41;;;;;;;4.93;4.43;;;;;;;;;;5048579;28;20655;-58
2023/07/10 00:59:23;;;;;;;4.80;4.40;;;;;;;;;;5050041;28;20195;-58
2023/07/10 01:02:08;;;;;;;6.33;4.70;;;;;;;;;;5049529;28;20601;-58
2023/07/10 01:04:39;;;;;;;5.00;4.50;;;;;;;;;;5049395;28;20200;-58
2023/07/10 01:07:06;;;;;;;4.73;4.23;;;;;;;;;;5050512;28;20169;-58
2023/07/10 01:09:33;;;;;;;6.37;4.87;;;;;;;;;;5050294;28;20586;-58
2023/07/10 01:11:59;;;;;;;6.40;5.17;;;;;;;;;;5049774;28;20578;-58
2023/07/10 01:14:25;;;;;;;4.40;4.00;;;;;;;;;;5050522;28;20171;-58
2023/07/10 01:16:52;;;;;;;6.83;5.20;;;;;;;;;;5049611;28;20186;-58
2023/07/10 01:19:20;;;;;;;6.90;5.03;;;;;;;;;;5049727;28;20164;-58
2023/07/10 01:21:47;;;;;;;6.00;5.40;;;;;;;;;;5050063;28;20197;-58
2023/07/10 01:24:13;;;;;;;5.60;5.10;;;;;;;;;;5049843;28;20162;-58
2023/07/10 01:26:40;;;;;;;5.67;5.13;;;;;;;;;;5050236;28;20169;-58
2023/07/10 01:29:15;;;;;;;4.90;4.40;;;;;;;;;;5050057;28;20176;-59
2023/07/10 01:31:42;;;;;;;4.97;4.25;;;;;;;;;;5049732;28;20259;-58
2023/07/10 01:34:10;;;;;;;6.40;5.60;;;;;;;;;;5048964;28;20170;-58
2023/07/10 01:36:37;;;;;;;7.33;4.93;;;;;;;;;;5050056;28;20176;-58
2023/07/10 01:39:15;;;;;;;4.97;4.57;;;;;;;;;;5050082;28;20837;-58
2023/07/10 01:41:43;;;;;;;5.30;4.43;;;;;;;;;;5053910;28;20714;-58
2023/07/10 01:44:27;;;;;;;5.55;5.03;;;;;;;;;;5052863;28;20404;-58
2023/07/10 01:46:54;;;;;;;6.63;5.57;;;;;;;;;;5053018;28;20177;-58
2023/07/10 01:49:24;;;;;;;6.43;5.57;;;;;;;;;;5053678;28;20224;-58
2023/07/10 01:51:51;;;;;;;6.53;5.70;;;;;;;;;;5053626;28;20196;-58
2023/07/10 01:54:17;;;;;;;9.43;6.00;;;;;;;;;;5053701;28;20623;-59
2023/07/10 01:56:44;;;;;;;5.23;4.73;;;;;;;;;;5062051;28;20391;-58
2023/07/10 01:59:10;;;;;;;5.27;4.87;;;;;;;;;;5073588;28;20173;-58
2023/07/10 02:01:37;;;;;;;6.70;5.53;;;;;;;;;;5072899;28;20293;-58
2023/07/10 02:04:03;;;;;;;6.83;6.23;;;;;;;;;;5072396;28;20864;-58
2023/07/10 02:06:31;;;;;;;5.67;4.77;;;;;;;;;;5073584;28;20164;-58
2023/07/10 02:08:57;;;;;;;7.03;5.53;;;;;;;;;;5073540;28;20172;-58
2023/07/10 02:11:23;;;;;;;6.93;5.60;;;;;;;;;;5073148;28;20597;-58
2023/07/10 02:13:49;;;;;;;6.77;5.70;;;;;;;;;;5073255;28;20191;-59
2023/07/10 02:16:15;;;;;;;6.50;5.90;;;;;;;;;;5072632;28;20175;-58
2023/07/10 02:18:41;;;;;;;5.90;5.43;;;;;;;;;;5072407;28;20262;-58
2023/07/10 02:21:08;;;;;;;6.17;5.57;;;;;;;;;;5073002;28;20170;-58
2023/07/10 02:23:35;;;;;;;7.00;6.30;;;;;;;;;;5073354;28;20167;-58
2023/07/10 02:26:03;;;;;;;6.27;5.70;;;;;;;;;;5073043;28;20567;-58
2023/07/10 02:28:29;;;;;;;6.57;6.07;;;;;;;;;;5073166;28;20186;-58
2023/07/10 02:30:55;;;;;;;5.63;5.13;;;;;;;;;;5072810;28;20690;-58
2023/07/10 02:33:22;;;;;;;7.30;5.20;;;;;;;;;;5071764;28;20505;-58
2023/07/10 02:35:48;;;;;;;5.50;5.00;;;;;;;;;;5072883;28;20159;-58
2023/07/10 02:38:15;;;;;;;5.97;5.37;;;;;;;;;;5072807;28;20665;-58
2023/07/10 02:40:43;;;;;;;6.20;5.60;;;;;;;;;;5072959;28;20189;-58
2023/07/10 02:43:10;;;;;;;6.00;5.40;;;;;;;;;;5072418;28;20205;-58
2023/07/10 02:45:36;;;;;;;6.23;5.00;;;;;;;;;;5073078;28;20173;-58
2023/07/10 02:48:02;;;;;;;5.93;5.43;;;;;;;;;;5071529;28;20602;-58
2023/07/10 02:50:28;;;;;;;6.23;5.60;;;;;;;;;;5071996;28;20165;-58
2023/07/10 02:52:54;;;;;;;5.77;5.20;;;;;;;;;;5072281;28;20177;-58
2023/07/10 02:55:20;;;;;;;6.13;5.17;;;;;;;;;;5072308;28;20500;-59
2023/07/10 02:57:47;;;;;;;5.80;5.03;;;;;;;;;;5072316;28;20719;-59
2023/07/10 03:00:13;;;;;;;6.13;5.53;;;;;;;;;;5072610;28;20584;-58
2023/07/10 03:02:39;;;;;;;5.57;4.97;;;;;;;;;;5071480;28;20188;-58
2023/07/10 03:05:05;;;;;;;6.67;5.90;;;;;;;;;;5071502;28;20230;-58
2023/07/10 03:07:31;;;;;;;5.93;5.47;;;;;;;;;;5072041;28;20172;-58
2023/07/10 03:09:57;;;;;;;7.23;6.53;;;;;;;;;;5072043;28;20195;-58
2023/07/10 03:12:24;;;;;;;6.30;5.70;;;;;;;;;;5072096;28;20174;-58
2023/07/10 03:14:50;;;;;;;6.67;6.03;;;;;;;;;;5072197;28;20553;-58
2023/07/10 03:17:17;;;;;;;7.00;6.40;;;;;;;;;;5071408;28;20271;-58
2023/07/10 03:19:43;;;;;;;8.43;7.10;;;;;;;;;;5071617;28;20176;-58
2023/07/10 03:22:09;;;;;;;9.30;6.07;;;;;;;;;;5071626;28;20204;-58
2023/07/10 03:24:35;;;;;;;6.37;5.27;;;;;;;;;;5072218;28;20583;-58
2023/07/10 03:27:01;;;;;;;6.10;5.50;;;;;;;;;;5072192;28;20512;-58
2023/07/10 03:29:27;;;;;;;6.43;5.50;;;;;;;;;;5072071;28;20675;-58
2023/07/10 03:31:53;;;;;;;8.10;7.30;;;;;;;;;;5071426;28;20260;-58
2023/07/10 03:34:19;;;;;;;8.10;5.93;;;;;;;;;;5071682;28;20636;-58
2023/07/10 03:36:45;;;;;;;7.78;6.97;;;;;;;;;;5071547;28;20886;-58
2023/07/10 03:39:12;;;;;;;6.67;6.07;;;;;;;;;;5071530;28;20186;-58
2023/07/10 03:41:39;;;;;;;6.47;5.70;;;;;;;;;;5071763;28;20672;-58
2023/07/10 03:44:05;;;;;;;7.23;6.23;;;;;;;;;;5071537;28;20176;-59
2023/07/10 03:46:32;;;;;;;11.20;6.37;;;;;;;;;;5071468;28;20166;-58
2023/07/10 03:48:58;;;;;;;6.57;5.97;;;;;;;;;;5070803;28;20174;-58
2023/07/10 03:51:24;;;;;;;8.50;6.70;;;;;;;;;;5071504;28;20606;-58
2023/07/10 03:53:50;;;;;;;7.17;6.30;;;;;;;;;;5071552;28;20171;-58
2023/07/10 03:56:17;;;;;;;6.67;6.07;;;;;;;;;;5071281;28;20238;-58
2023/07/10 03:58:45;;;;;;;7.07;6.17;;;;;;;;;;5071558;28;20604;-58
2023/07/10 04:01:11;;;;;;;7.60;6.83;;;;;;;;;;5070616;28;20170;-58
2023/07/10 04:03:38;;;;;;;7.43;6.07;;;;;;;;;;5069828;28;20262;-58
2023/07/10 04:06:04;;;;;;;8.27;6.33;;;;;;;;;;5070922;28;20263;-58
2023/07/10 04:08:31;;;;;;;7.33;6.63;;;;;;;;;;5070877;28;20225;-58
2023/07/10 04:11:00;;;;;;;7.83;6.70;;;;;;;;;;5071146;28;20274;-58
2023/07/10 04:13:26;;;;;;;7.53;6.83;;;;;;;;;;5070505;28;20643;-58
2023/07/10 04:16:11;;;;;;;8.37;6.60;;;;;;;;;;5070710;28;20176;-58
2023/07/10 04:18:38;;;;;;;7.07;6.47;;;;;;;;;;5069502;28;20543;-58
2023/07/10 04:21:06;;;;;;;8.37;7.53;;;;;;;;;;5069904;28;20167;-58
2023/07/10 04:23:32;;;;;;;7.50;6.80;;;;;;;;;;5069650;28;20180;-58
2023/07/10 04:25:59;;;;;;;8.90;8.00;;;;;;;;;;5070698;28;20159;-58
2023/07/10 04:28:25;;;;;;;8.53;7.53;;;;;;;;;;5070464;28;20167;-58
2023/07/10 04:30:53;;;;;;;9.20;8.40;;;;;;;;;;5070571;28;20683;-58
2023/07/10 04:33:21;;;;;;;10.43;9.43;;;;;;;;;;5069682;28;20624;-58
2023/07/10 04:35:55;;;;;;;12.63;9.80;;;;;;;;;;5070888;28;20179;-57
2023/07/10 04:38:23;;;;;;;9.50;8.20;;;;;;;;;;5070543;28;20175;-58
2023/07/10 04:40:53;;;;;;;8.73;7.93;;;;;;;;;;5070575;28;20162;-58
2023/07/10 04:43:19;;;;;;;8.90;8.00;;;;;;;;;;5070542;28;20220;-58
2023/07/10 04:45:45;;;;;;;10.77;7.17;;;;;;;;;;5070695;28;20181;-58
2023/07/10 04:48:12;;;;;;;8.57;7.80;;;;;;;;;;5069126;28;20157;-58
2023/07/10 04:50:39;;;;;;;9.67;8.67;;;;;;;;;;5070525;28;20656;-58
2023/07/10 04:53:05;;;;;;;9.43;8.00;;;;;;;;;;5069922;28;20195;-59
2023/07/10 04:55:31;;;;;;;9.97;9.13;;;;;;;;;;5070575;28;20586;-58
2023/07/10 04:57:58;;;;;;;10.87;8.83;;;;;;;;;;5069757;28;20341;-58
2023/07/10 05:00:24;;;;;;;8.90;8.10;;;;;;;;;;5070173;28;20174;-58
2023/07/10 05:02:50;;;;;;;9.13;7.70;;;;;;;;;;5069500;28;20203;-59
2023/07/10 05:05:17;;;;;;;8.10;7.30;;;;;;;;;;5069648;28;20205;-58
2023/07/10 05:07:43;;;;;;;11.37;8.30;;;;;;;;;;5070183;28;20501;-58
2023/07/10 05:10:09;;;;;;;8.93;8.03;;;;;;;;;;5070334;28;20517;-58
2023/07/10 05:12:35;;;;;;;7.80;7.13;;;;;;;;;;5070015;28;20173;-58
2023/07/10 05:15:01;;;;;;;10.17;8.20;;;;;;;;;;5073011;28;20665;-58
2023/07/10 05:17:29;;;;;;;9.83;7.27;;;;;;;;;;5073424;28;20173;-57
2023/07/10 05:19:55;;;;;;;8.47;7.67;;;;;;;;;;5073565;28;20267;-57
2023/07/10 05:22:22;;;;;;;11.27;8.13;;;;;;;;;;5073997;28;20622;-57
2023/07/10 05:24:48;;;;;;;9.50;7.53;;;;;;;;;;5074036;28;20175;-57
2023/07/10 05:27:14;;;;;;;9.37;7.03;;;;;;;;;;5055600;28;20180;-57
2023/07/10 05:29:40;;;;;;;9.17;7.33;;;;;;;;;;5073937;28;20230;-57
2023/07/10 05:32:06;;;;;;;8.50;7.33;;;;;;;;;;5073331;28;20164;-57
2023/07/10 05:34:32;;;;;;;7.93;6.77;;;;;;;;;;5074125;28;20184;-57
2023/07/10 05:36:59;;;;;;;10.37;6.77;;;;;;;;;;5073669;28;20203;-57
2023/07/10 05:39:25;;;;;;;9.93;7.33;;;;;;;;;;5073924;28;20192;-57
2023/07/10 05:41:51;;;;;;;8.47;6.90;;;;;;;;;;5055568;28;20737;-57
2023/07/10 05:44:18;;;;;;;9.47;7.10;;;;;;;;;;5073605;28;20207;-58
2023/07/10 05:46:45;;;;;;;7.67;6.90;;;;;;;;;;5055532;28;20578;-58
2023/07/10 05:49:14;;;;;;;10.17;7.47;;;;;;;;;;5072818;28;20192;-58
2023/07/10 05:51:40;;;;;;;9.63;6.67;;;;;;;;;;5073545;28;20287;-57
2023/07/10 05:54:06;;;;;;;9.20;7.83;;;;;;;;;;5073821;28;20180;-58
2023/07/10 05:56:32;;;;;;;8.53;7.10;;;;;;;;;;5073417;28;20285;-58
2023/07/10 05:59:00;;;;;;;9.10;7.53;;;;;;;;;;5073250;28;20489;-58
2023/07/10 06:01:26;;;;;;;10.43;6.87;;;;;;;;;;5072993;28;20199;-56
2023/07/10 06:03:52;;;;;;;8.03;6.83;;;;;;;;;;5072408;28;20188;-55
2023/07/10 06:06:19;;;;;;;8.53;6.90;;;;;;;;;;5073255;28;20173;-60
2023/07/10 06:08:45;;;;;;;7.63;6.93;;;;;;;;;;5073542;28;20261;-55
2023/07/10 06:11:11;;;;;;;7.80;7.00;;;;;;;;;;5073412;28;20157;-56
2023/07/10 06:13:37;;;;;;;6.77;5.90;;;;;;;;;;5073528;28;20575;-55
2023/07/10 06:16:08;;;;;;;7.17;6.57;;;;;;;;;;5073436;28;20639;-55
2023/07/10 06:18:35;;;;;;;9.00;6.93;;;;;;;;;;5054009;28;20183;-56
2023/07/10 06:21:01;;;;;;;8.43;7.17;;;;;;;;;;5073200;28;20161;-55
2023/07/10 06:23:29;;;;;;;10.00;7.57;;;;;;;;;;5073372;28;20194;-55
2023/07/10 06:25:56;;;;;;;7.50;6.80;;;;;;;;;;5054035;28;20538;-56
2023/07/10 06:28:23;;;;;;;6.63;5.97;;;;;;;;;;5073148;28;20290;-56
2023/07/10 06:31:00;;;;;;;6.67;6.03;;;;;;;;;;5073161;28;20157;-55
2023/07/10 06:33:27;;;;;;;6.57;5.97;;;;;;;;;;5071311;28;20172;-56
2023/07/10 06:35:54;;;;;;;8.20;7.43;;;;;;;;;;5072809;28;20238;-57
2023/07/10 06:38:20;;;;;;;9.50;6.83;;;;;;;;;;5054641;28;20223;-56
2023/07/10 06:40:48;;;;;;;7.17;6.37;;;;;;;;;;5073376;28;20584;-55
2023/07/10 06:43:14;;;;;;;7.83;5.80;;;;;;;;;;5072261;28;20188;-55
2023/07/10 06:45:40;;;;;;;6.43;5.83;;;;;;;;;;5072834;28;20172;-56
2023/07/10 06:48:07;;;;;;;6.87;6.17;;;;;;;;;;5071222;28;20565;-56
2023/07/10 06:50:34;;;;;;;6.57;5.77;;;;;;;;;;5072868;28;20532;-56
2023/07/10 06:53:00;;;;;;;6.77;5.50;;;;;;;;;;5054206;28;20180;-56
2023/07/10 06:55:27;;;;;;;6.27;5.67;;;;;;;;;;5072652;28;20231;-56
2023/07/10 06:57:53;;;;;;;6.27;5.40;;;;;;;;;;5072228;28;20228;-56
2023/07/10 07:00:20;;;;;;;6.83;6.17;;;;;;;;;;5054549;28;20186;-56
2023/07/10 07:02:46;;;;;;;6.23;5.63;;;;;;;;;;5071446;28;20213;-57
2023/07/10 07:05:13;;;;;;;6.10;5.50;;;;;;;;;;5071256;28;20407;-57
2023/07/10 07:07:40;;;;;;;7.73;5.07;;;;;;;;;;5072559;28;20209;-57
2023/07/10 07:10:08;;;;;;;5.50;4.93;;;;;;;;;;5072085;28;20654;-57
2023/07/10 07:12:35;;;;;;;6.23;5.47;;;;;;;;;;5054265;28;20210;-57
2023/07/10 07:15:01;;;;;;;5.57;5.10;;;;;;;;;;5072237;28;20173;-57
2023/07/10 07:17:28;;;;;;;5.47;4.93;;;;;;;;;;5071660;28;20159;-56
2023/07/10 07:19:54;;;;;;;4.90;4.33;;;;;;;;;;5071587;28;20238;-56
2023/07/10 07:22:20;;;;;;;6.37;4.27;;;;;;;;;;5072026;28;20209;-56
2023/07/10 07:24:47;;;;;;;5.10;4.60;;;;;;;;;;5071576;28;20252;-57
2023/07/10 07:27:14;;;;;;;4.73;4.33;;;;;;;;;;5071887;28;20165;-55
2023/07/10 07:29:40;;;;;;;4.30;3.90;;;;;;;;;;5072196;28;20539;-56
2023/07/10 07:32:06;;;;;;;7.03;4.70;;;;;;;;;;5070737;28;20198;-56
2023/07/10 07:34:32;;;;;;;4.17;3.50;;;;;;;;;;5071410;28;20161;-56
2023/07/10 07:36:59;;;;;;;6.37;3.83;;;;;;;;;;5071828;28;20165;-57
2023/07/10 07:39:30;;;;;;;4.03;3.70;;;;;;;;;;5071958;28;20168;-56
2023/07/10 07:41:57;;;;;;;3.97;3.33;;;;;;;;;;5071788;28;20676;-56
2023/07/10 07:44:23;;;;;;;5.23;3.60;;;;;;;;;;5071507;28;20165;-56
2023/07/10 07:46:50;;;;;;;6.33;4.03;;;;;;;;;;5070838;28;20173;-57
2023/07/10 07:49:16;;;;;;;4.13;3.73;;;;;;;;;;5071229;28;20172;-55
2023/07/10 07:51:43;;;;;;;4.30;3.90;;;;;;;;;;5071307;28;20177;-57
2023/07/10 07:54:11;;;;;;;4.30;3.90;;;;;;;;;;5071227;28;20480;-56
2023/07/10 07:56:37;;;;;;;3.90;3.50;;;;;;;;;;5071212;28;20216;-56
2023/07/10 07:59:03;;;;;;;3.40;3.10;;;;;;;;;;5071115;28;20154;-56
2023/07/10 08:01:30;;;;;;;3.67;3.37;;;;;;;;;;5070589;28;20211;-57
2023/07/10 08:03:57;;;;;;;4.47;3.60;;;;;;;;;;5070207;28;20220;-56
2023/07/10 08:06:28;;;;;;;3.83;3.40;;;;;;;;;;5071093;28;20157;-56
2023/07/10 08:08:54;;;;;;;4.53;3.50;;;;;;;;;;5071456;28;20169;-56
2023/07/10 08:11:21;;;;;;;3.67;3.23;;;;;;;;;;5071041;28;20173;-56
2023/07/10 08:13:48;;;;;;;4.80;3.17;;;;;;;;;;5071000;28;20512;-56
2023/07/10 08:16:14;;;;;;;4.60;3.00;;;;;;;;;;5070825;28;20157;-56
2023/07/10 08:18:41;;;;;;;3.30;2.80;;;;;;;;;;5070527;28;20165;-56
2023/07/10 08:21:08;;;;;;;3.10;2.73;;;;;;;;;;5071223;28;20165;-58
2023/07/10 08:23:34;;;;;;;4.73;2.73;;;;;;;;;;5070999;28;20204;-55
2023/07/10 08:26:02;;;;;;;3.53;2.90;;;;;;;;;;5071040;28;20255;-56
2023/07/10 08:28:29;;;;;;;4.07;2.90;;;;;;;;;;5070727;28;20557;-56
2023/07/10 08:30:55;;;;;;;2.87;2.53;;;;;;;;;;5071254;28;20180;-59
2023/07/10 08:33:22;;;;;;;2.77;2.53;;;;;;;;;;5070251;28;20529;-56
2023/07/10 08:35:55;;;;;;;4.43;2.60;;;;;;;;;;5071009;28;20160;-55
2023/07/10 08:38:23;;;;;;;3.13;2.60;;;;;;;;;;5070814;28;20169;-56
2023/07/10 08:40:50;;;;;;;2.57;2.37;;;;;;;;;;5070962;28;20164;-56
2023/07/10 08:43:16;;;;;;;3.93;2.60;;;;;;;;;;5071015;28;20195;-56
2023/07/10 08:45:43;;;;;;;2.60;2.40;;;;;;;;;;5071053;28;20551;-56
2023/07/10 08:48:26;;;;;;;4.07;2.70;;;;;;;;;;5069473;28;20176;-56
2023/07/10 08:50:53;;;;;;;3.20;2.87;;;;;;;;;;5070706;28;20173;-57
2023/07/10 08:53:24;;;;;;;2.60;2.40;;;;;;;;;;5070514;28;20253;-55
2023/07/10 08:55:50;;;;;;;5.37;2.47;;;;;;;;;;5070631;28;20183;-56
2023/07/10 08:58:24;;;;;;;2.80;2.60;;;;;;;;;;5070530;28;20234;-55
2023/07/10 09:00:54;;;;;;;2.57;2.30;;;;;;;;;;5070476;28;20164;-55
2023/07/10 09:03:23;;;;;;;3.07;2.50;;;;;;;;;;5069842;28;20211;-55
2023/07/10 09:05:51;;;;;;;3.00;2.63;;;;;;;;;;5070210;28;20216;-55
2023/07/10 09:08:17;;;;;;;3.17;2.27;;;;;;;;;;5070580;28;20167;-55
2023/07/10 09:10:47;;;;;;;3.50;2.63;;;;;;;;;;5070452;28;20518;-55
2023/07/10 09:13:18;;;;;;;4.40;3.27;;;;;;;;;;5070289;28;20172;-55
2023/07/10 09:15:49;;;;;;;4.10;2.60;;;;;;;;;;5070416;28;20168;-54
2023/07/10 09:18:21;;;;;;;3.37;3.00;;;;;;;;;;5069089;28;20177;-56
2023/07/10 09:20:50;;;;;;;2.77;2.33;;;;;;;;;;5070503;28;20189;-54
2023/07/10 09:23:37;;;;;;;3.30;3.00;;;;;;;;;;5070261;28;20577;-54
2023/07/10 09:26:10;;;;;;;3.13;2.43;;;;;;;;;;5070129;28;20197;-56
2023/07/10 09:28:39;;;;;;;2.90;2.70;;;;;;;;;;5052118;28;20183;-56
2023/07/10 09:31:12;;;;;;;2.60;2.40;;;;;;;;;;5070509;28;20194;-54
2023/07/10 09:33:50;;;;;;;2.53;2.33;;;;;;;;;;5069729;28;20248;-55
2023/07/10 09:36:18;;;;;;;2.30;2.10;;;;;;;;;;5070089;28;20176;-55
2023/07/10 09:38:45;;;;;;;4.10;2.20;;;;;;;;;;5070536;28;20164;-55
2023/07/10 09:41:20;;;;;;;3.63;2.40;;;;;;;;;;5069777;28;20184;-55
2023/07/10 09:43:55;;;;;;;3.90;2.43;;;;;;;;;;5070485;28;20179;-54
2023/07/10 09:46:27;;;;;;;4.23;2.33;;;;;;;;;;5069907;28;20194;-55
2023/07/10 09:48:54;;;;;;;4.63;2.63;;;;;;;;;;5051507;28;20178;-54
2023/07/10 09:51:21;;;;;;;2.33;2.13;;;;;;;;;;5069956;28;20168;-55
2023/07/10 09:53:51;;;;;;;2.63;2.40;;;;;;;;;;5070295;28;20176;-55
2023/07/10 09:56:23;;;;;;;3.43;2.43;;;;;;;;;;5069494;28;20237;-54
2023/07/10 09:58:52;;;;;;;2.00;1.80;;;;;;;;;;5070153;28;20546;-55
2023/07/10 10:01:18;;;;;;;2.67;2.40;;;;;;;;;;5053098;28;20183;-55
2023/07/10 10:03:45;;;;;;;2.47;2.27;;;;;;;;;;5055182;28;20180;-57
2023/07/10 10:06:23;;;;;;;3.87;2.43;;;;;;;;;;5073632;28;20577;-56
2023/07/10 10:08:51;;;;;;;2.63;2.43;;;;;;;;;;5073875;28;20172;-55
2023/07/10 10:11:18;;;;;;;3.10;2.53;;;;;;;;;;5073296;28;20681;-56
2023/07/10 10:13:59;;;;;;;2.93;2.57;;;;;;;;;;5073410;28;20177;-56
2023/07/10 10:16:30;;;;;;;5.57;3.13;;;;;;;;;;5073077;28;20157;-55
2023/07/10 10:19:17;;;;;;;3.33;2.30;;;;;;;;;;5073101;28;20663;-57
2023/07/10 10:21:43;;;;;;;3.23;2.70;;;;;;;;;;5073718;28;20212;-56
2023/07/10 10:24:11;;;;;;;3.60;2.40;;;;;;;;;;5073543;28;20179;-56
2023/07/10 10:26:40;;;;;;;3.23;2.80;;;;;;;;;;5073656;28;20199;-55
2023/07/10 10:29:12;;;;;;;4.47;2.80;;;;;;;;;;5073624;28;20187;-56
2023/07/10 10:31:44;;;;;;;3.10;2.40;;;;;;;;;;5073056;28;20168;-57
2023/07/10 10:34:17;;;;;;;2.70;2.30;;;;;;;;;;5072717;28;20497;-57
2023/07/10 10:36:58;;;;;;;3.10;2.40;;;;;;;;;;5073140;28;20171;-56
2023/07/10 10:39:38;;;;;;;3.30;2.50;;;;;;;;;;5073435;28;20175;-56
2023/07/10 10:42:25;;;;;;;3.60;2.73;;;;;;;;;;5072958;28;20222;-57
2023/07/10 10:45:02;;;;;;;4.03;2.57;;;;;;;;;;5054784;28;20183;-57
2023/07/10 10:47:34;;;;;;;3.53;2.57;;;;;;;;;;5072326;28;20600;-57
2023/07/10 10:50:20;;;;;;;2.37;2.17;;;;;;;;;;5072840;28;20181;-58
2023/07/10 10:53:05;;;;;;;3.10;2.40;;;;;;;;;;5072623;28;20677;-57
2023/07/10 10:55:55;;;;;;;4.33;2.67;;;;;;;;;;5072790;28;20195;-57
2023/07/10 10:58:45;;;;;;;2.20;2.00;;;;;;;;;;5062527;28;20304;-57
2023/07/10 11:01:32;;;;;;;2.80;2.50;;;;;;;;;;5062180;28;20688;-58
2023/07/10 11:04:25;;;;;;;2.80;2.20;;;;;;;;;;5071643;28;20214;-57
2023/07/10 11:07:14;;;;;;;3.67;2.20;;;;;;;;;;5068829;28;20215;-56
2023/07/10 11:09:57;;;;;;;2.97;2.47;;;;;;;;;;5062123;28;20195;-57
2023/07/10 11:12:26;;;;;;;3.03;2.73;;;;;;;;;;5072246;28;20187;-57
2023/07/10 11:14:55;;;;;;;2.50;2.20;;;;;;;;;;5072612;28;20528;-57
2023/07/10 11:17:22;;;;;;;4.10;2.37;;;;;;;;;;5071805;28;20221;-57
2023/07/10 11:19:50;;;;;;;2.63;2.30;;;;;;;;;;5054997;28;20536;-57
2023/07/10 11:22:34;;;;;;;2.57;2.27;;;;;;;;;;5072217;28;20393;-56
2023/07/10 11:25:02;;;;;;;2.57;2.20;;;;;;;;;;5072531;28;20175;-57
2023/07/10 11:27:31;;;;;;;3.23;2.37;;;;;;;;;;5072249;28;20181;-57
2023/07/10 11:30:09;;;;;;;3.70;2.43;;;;;;;;;;5054470;28;20218;-57
2023/07/10 11:32:54;;;;;;;2.93;2.67;;;;;;;;;;5072227;28;20164;-57
2023/07/10 11:35:21;;;;;;;3.10;2.80;;;;;;;;;;5072390;28;20264;-57
2023/07/10 11:37:48;;;;;;;4.13;2.60;;;;;;;;;;5072132;28;20173;-56
2023/07/10 11:40:29;;;;;;;3.07;2.43;;;;;;;;;;5053973;28;20184;-57
2023/07/10 11:42:56;;;;;;;3.37;3.07;;;;;;;;;;5053950;28;20460;-57
2023/07/10 11:45:35;;;;;;;3.10;2.30;;;;;;;;;;5054095;28;20630;-57
2023/07/10 11:48:02;;;;;;;2.40;2.20;;;;;;;;;;5052660;28;20170;-57
2023/07/10 11:50:30;;;;;;;3.90;2.43;;;;;;;;;;5071787;28;20160;-57
2023/07/10 11:53:06;;;;;;;3.87;2.50;;;;;;;;;;5071623;28;20188;-56
2023/07/10 11:55:41;;;;;;;3.03;2.40;;;;;;;;;;5072219;28;20615;-57
2023/07/10 11:58:26;;;;;;;3.38;3.10;;;;;;;;;;5071724;28;20168;-58
2023/07/10 12:00:58;;;;;;;5.80;2.25;;;;;;;;;;5072005;28;20577;-60
2023/07/10 12:03:24;;;;;;;5.13;2.90;;;;;;;;;;5070416;28;20211;-57
2023/07/10 12:05:51;;;;;;;3.25;2.80;;;;;;;;;;5071099;28;20221;-57
2023/07/10 12:08:18;;;;;;;3.90;2.60;;;;;;;;;;5071516;28;20644;-56
2023/07/10 12:10:47;;;;;;;2.03;1.83;;;;;;;;;;5071315;28;20176;-56
2023/07/10 12:13:13;;;;;;;3.10;2.40;;;;;;;;;;5070867;28;20172;-57
2023/07/10 12:15:41;;;;;;;3.08;2.58;;;;;;;;;;5071359;28;20195;-56
2023/07/10 12:18:09;;;;;;;2.70;2.30;;;;;;;;;;5070302;28;20496;-56
2023/07/10 12:20:36;;;;;;;2.30;2.10;;;;;;;;;;5053319;28;20180;-56
2023/07/10 12:23:20;;;;;;;5.40;2.75;;;;;;;;;;5070106;28;20199;-57
2023/07/10 12:25:56;;;;;;;3.75;2.63;;;;;;;;;;5071035;28;20455;-56
2023/07/10 12:28:25;;;;;;;3.30;2.83;;;;;;;;;;5070928;28;20164;-56
2023/07/10 12:30:53;;;;;;;3.90;2.83;;;;;;;;;;5070897;28;20623;-57
2023/07/10 12:33:42;;;;;;;3.72;2.53;;;;;;;;;;5070126;28;20165;-57
2023/07/10 12:36:28;;;;;;;3.80;2.72;;;;;;;;;;5042755;28;20189;-57
2023/07/10 12:38:59;;;;;;;2.40;2.20;;;;;;;;;;5070447;28;20185;-57
2023/07/10 12:41:25;;;;;;;4.90;2.90;;;;;;;;;;5070862;28;20162;-56
2023/07/10 12:43:53;;;;;;;4.75;2.83;;;;;;;;;;5070919;28;20254;-55
2023/07/10 12:46:24;;;;;;;3.05;2.72;;;;;;;;;;5070275;28;20182;-56
2023/07/10 12:48:54;;;;;;;3.17;2.65;;;;;;;;;;5069962;28;20165;-56
2023/07/10 12:51:24;;;;;;;2.58;2.38;;;;;;;;;;5070608;28;20206;-56
2023/07/10 12:53:51;;;;;;;2.92;2.55;;;;;;;;;;5070499;28;20239;-57
2023/07/10 12:56:35;;;;;;;5.85;2.67;;;;;;;;;;5052213;28;20224;-56
2023/07/10 12:59:13;;;;;;;2.70;2.50;;;;;;;;;;5070919;28;20590;-58
2023/07/10 13:01:46;;;;;;;3.70;2.72;;;;;;;;;;5070268;28;20156;-56
2023/07/10 13:04:25;;;;;;;3.03;2.73;;;;;;;;;;5065100;28;20307;-56
2023/07/10 13:07:15;;;;;;;5.90;2.60;;;;;;;;;;5050589;28;20173;-56
2023/07/10 13:09:42;;;;;;;3.30;2.53;;;;;;;;;;5050498;28;20538;-56
2023/07/10 13:12:20;;;;;;;3.00;2.53;;;;;;;;;;5048812;28;20555;-57
2023/07/10 13:14:47;;;;;;;3.05;2.60;;;;;;;;;;5050387;28;20583;-56
2023/07/10 13:17:13;;;;;;;2.60;2.40;;;;;;;;;;5049512;28;20264;-57
2023/07/10 13:19:39;;;;;;;3.38;2.85;;;;;;;;;;5049889;28;20173;-56
2023/07/10 13:22:12;;;;;;;3.38;2.63;;;;;;;;;;5049903;28;20202;-56
2023/07/10 13:24:38;;;;;;;3.55;2.70;;;;;;;;;;5049868;28;20177;-57
2023/07/10 13:27:05;;;;;;;3.25;2.47;;;;;;;;;;5049735;28;20153;-57
2023/07/10 13:29:31;;;;;;;3.38;2.78;;;;;;;;;;5050025;28;20260;-57
2023/07/10 13:31:58;;;;;;;7.93;2.83;;;;;;;;;;5048985;28;20644;-59
2023/07/10 13:34:24;;;;;;;4.13;3.00;;;;;;;;;;5050022;28;20188;-57
2023/07/10 13:36:50;;;;;;;3.08;2.83;;;;;;;;;;5053849;28;20299;-58
2023/07/10 13:39:18;;;;;;;2.88;2.40;;;;;;;;;;5054298;28;20169;-57
2023/07/10 13:41:44;;;;;;;3.03;2.63;;;;;;;;;;5058398;28;20196;-56
2023/07/10 13:44:11;;;;;;;2.72;2.53;;;;;;;;;;5073886;28;20196;-56
2023/07/10 13:46:37;;;;;;;3.38;2.95;;;;;;;;;;5073551;28;20245;-57
2023/07/10 13:49:09;;;;;;;5.18;2.50;;;;;;;;;;5073336;28;20176;-58
2023/07/10 13:51:38;;;;;;;5.78;2.80;;;;;;;;;;5073920;28;20219;-57
2023/07/10 13:54:04;;;;;;;3.22;2.72;;;;;;;;;;5074101;28;20605;-57
2023/07/10 13:56:31;;;;;;;5.30;2.88;;;;;;;;;;5072857;28;20274;-55
2023/07/10 13:58:58;;;;;;;2.33;2.13;;;;;;;;;;5073537;28;20167;-56
2023/07/10 14:01:24;;;;;;;4.25;3.05;;;;;;;;;;5054699;28;20239;-55
2023/07/10 14:03:52;;;;;;;5.28;2.85;;;;;;;;;;5072586;28;20197;-55
2023/07/10 14:06:24;;;;;;;4.15;2.80;;;;;;;;;;5072448;28;20159;-57
2023/07/10 14:08:51;;;;;;;5.60;2.50;;;;;;;;;;5072481;28;20165;-56
2023/07/10 14:11:18;;;;;;;5.15;2.70;;;;;;;;;;5072118;28;20397;-56
2023/07/10 14:13:45;;;;;;;2.80;2.45;;;;;;;;;;5072855;28;20173;-54
2023/07/10 14:16:19;;;;;;;5.03;2.65;;;;;;;;;;5072186;28;20169;-57
2023/07/10 14:18:46;;;;;;;4.03;2.50;;;;;;;;;;5054438;28;20183;-56
2023/07/10 14:21:13;;;;;;;4.13;3.63;;;;;;;;;;5055745;28;20176;-56
2023/07/10 14:23:39;;;;;;;3.17;2.60;;;;;;;;;;5073552;28;20230;-56
2023/07/10 14:26:11;;;;;;;3.60;2.60;;;;;;;;;;5073768;28;20160;-56
2023/07/10 14:28:37;;;;;;;4.00;3.03;;;;;;;;;;5073457;28;20168;-56
2023/07/10 14:31:03;;;;;;;5.13;3.13;;;;;;;;;;5073673;28;20547;-55
2023/07/10 14:33:30;;;;;;;4.22;2.58;;;;;;;;;;5072709;28;20155;-55
2023/07/10 14:35:56;;;;;;;4.22;2.55;;;;;;;;;;5055400;28;20181;-55
2023/07/10 14:38:25;;;;;;;2.92;2.60;;;;;;;;;;5073295;28;20617;-57
2023/07/10 14:40:52;;;;;;;4.60;2.95;;;;;;;;;;5073926;28;20179;-56
2023/07/10 14:43:19;;;;;;;4.35;3.10;;;;;;;;;;5073415;28;20200;-55
2023/07/10 14:45:47;;;;;;;4.38;2.50;;;;;;;;;;5073054;28;20577;-54
2023/07/10 14:48:14;;;;;;;4.32;2.90;;;;;;;;;;5071385;28;20264;-54
2023/07/10 14:50:41;;;;;;;3.92;2.55;;;;;;;;;;5073023;28;20178;-56
2023/07/10 14:53:12;;;;;;;4.30;2.85;;;;;;;;;;5073007;28;20169;-56